createdAt,value
2018-01-19T00:01:03.463Z,4.60
2018-01-19T00:03:32.333Z,4.50
2018-01-19T00:06:01.943Z,4.70
2018-01-19T00:08:31.547Z,4.80
2018-01-19T00:11:01.178Z,4.80
2018-01-19T00:13:30.262Z,4.80
2018-01-19T00:15:59.111Z,4.90
2018-01-19T00:18:28.731Z,5.00
2018-01-19T00:20:59.089Z,5.00
2018-01-19T00:23:27.914Z,5.00
2018-01-19T00:25:56.770Z,5.10
2018-01-19T00:28:25.616Z,5.10
2018-01-19T00:30:55.226Z,5.10
2018-01-19T00:33:24.925Z,5.10
2018-01-19T00:35:53.693Z,5.10
2018-01-19T00:38:22.521Z,5.20
2018-01-19T00:40:51.589Z,5.20
2018-01-19T00:43:20.418Z,5.20
2018-01-19T00:45:49.298Z,5.20
2018-01-19T00:48:18.153Z,5.20
2018-01-19T00:50:48.514Z,5.20
2018-01-19T00:53:17.366Z,5.20
2018-01-19T00:55:46.202Z,5.20
2018-01-19T00:58:15.059Z,5.20
2018-01-19T01:00:44.673Z,5.10
2018-01-19T01:03:14.282Z,5.10
2018-01-19T01:05:43.888Z,5.10
2018-01-19T01:08:13.501Z,5.00
2018-01-19T01:10:42.466Z,5.00
2018-01-19T01:13:11.304Z,4.90
2018-01-19T01:15:40.192Z,4.80
2018-01-19T01:18:09.046Z,4.60
2018-01-19T01:20:38.662Z,4.00
2018-01-19T01:23:08.271Z,3.90
2018-01-19T01:25:37.906Z,3.80
2018-01-19T01:28:06.752Z,3.70
2018-01-19T01:30:35.579Z,3.60
2018-01-19T01:33:05.499Z,3.70
2018-01-19T01:35:34.759Z,3.60
2018-01-19T01:38:03.963Z,3.80
2018-01-19T01:40:32.805Z,3.90
2018-01-19T01:43:02.458Z,3.90
2018-01-19T01:45:31.298Z,3.80
2018-01-19T01:48:00.926Z,3.80
2018-01-19T01:50:29.813Z,3.70
2018-01-19T01:52:58.873Z,3.80
2018-01-19T01:55:28.494Z,3.50
2018-01-19T01:57:58.089Z,3.40
2018-01-19T02:00:27.782Z,3.00
2018-01-19T02:02:56.575Z,2.90
2018-01-19T02:05:25.409Z,2.80
2018-01-19T02:07:54.674Z,2.70
2018-01-19T02:10:24.327Z,2.50
2018-01-19T02:12:53.165Z,2.40
2018-01-19T02:15:22.013Z,2.40
2018-01-19T02:17:50.851Z,2.10
2018-01-19T02:20:20.478Z,2.00
2018-01-19T02:22:49.334Z,1.90
2018-01-19T02:25:18.186Z,2.00
2018-01-19T02:27:48.135Z,1.90
2018-01-19T02:30:16.930Z,1.80
2018-01-19T02:32:45.771Z,1.80
2018-01-19T02:35:14.614Z,1.90
2018-01-19T02:37:44.238Z,2.10
2018-01-19T02:40:13.838Z,2.20
2018-01-19T02:42:43.451Z,2.30
2018-01-19T02:45:13.055Z,2.50
2018-01-19T02:47:42.663Z,2.50
2018-01-19T02:50:12.267Z,2.60
2018-01-19T02:52:41.887Z,2.60
2018-01-19T02:55:11.518Z,2.80
2018-01-19T02:57:40.399Z,2.70
2018-01-19T03:00:09.248Z,2.80
2018-01-19T03:02:38.077Z,2.90
2018-01-19T03:05:06.922Z,2.90
2018-01-19T03:07:35.756Z,2.80
2018-01-19T03:10:04.597Z,2.80
2018-01-19T03:12:33.430Z,2.80
2018-01-19T03:15:02.278Z,2.80
2018-01-19T03:17:31.117Z,2.80
2018-01-19T03:19:59.966Z,2.90
2018-01-19T03:22:29.574Z,2.90
2018-01-19T03:24:59.239Z,3.00
2018-01-19T03:27:28.074Z,2.90
2018-01-19T03:29:57.674Z,2.90
2018-01-19T03:32:26.531Z,2.90
2018-01-19T03:34:55.375Z,2.90
2018-01-19T03:37:24.213Z,2.80
2018-01-19T03:39:53.161Z,2.80
2018-01-19T03:42:22.042Z,2.70
2018-01-19T03:44:50.882Z,2.60
2018-01-19T03:47:19.727Z,2.50
2018-01-19T03:49:48.557Z,2.50
2018-01-19T03:52:17.405Z,2.50
2018-01-19T03:54:46.363Z,2.50
2018-01-19T03:57:15.998Z,2.60
2018-01-19T03:59:44.846Z,2.50
2018-01-19T04:02:13.690Z,2.50
2018-01-19T04:04:42.530Z,2.50
2018-01-19T04:07:12.170Z,2.50
2018-01-19T04:09:41.026Z,2.40
2018-01-19T04:12:10.617Z,2.50
2018-01-19T04:14:39.651Z,2.50
2018-01-19T04:17:08.509Z,2.50
2018-01-19T04:19:37.363Z,2.60
2018-01-19T04:22:06.227Z,2.60
2018-01-19T04:24:35.046Z,2.70
2018-01-19T04:27:03.924Z,2.50
2018-01-19T04:29:32.745Z,2.40
2018-01-19T04:32:01.583Z,2.20
2018-01-19T04:34:30.465Z,2.20
2018-01-19T04:36:59.298Z,2.20
2018-01-19T04:39:28.158Z,2.30
2018-01-19T04:41:57.014Z,2.30
2018-01-19T04:44:25.845Z,2.30
2018-01-19T04:46:54.677Z,2.30
2018-01-19T04:49:23.521Z,2.30
2018-01-19T04:51:52.370Z,2.30
2018-01-19T04:54:21.990Z,2.00
2018-01-19T04:56:51.472Z,2.00
2018-01-19T04:59:20.309Z,2.00
2018-01-19T05:01:49.168Z,1.90
2018-01-19T05:04:18.773Z,2.00
2018-01-19T05:06:48.419Z,2.10
2018-01-19T05:09:17.245Z,2.00
2018-01-19T05:11:46.084Z,2.00
2018-01-19T05:14:14.926Z,2.10
2018-01-19T05:16:43.798Z,2.10
2018-01-19T05:19:12.638Z,2.20
2018-01-19T05:21:42.351Z,2.30
2018-01-19T05:24:11.130Z,2.20
2018-01-19T05:26:40.762Z,2.40
2018-01-19T05:29:09.579Z,2.30
2018-01-19T05:31:38.426Z,2.30
2018-01-19T05:34:08.017Z,2.30
2018-01-19T05:36:37.654Z,2.30
2018-01-19T05:39:06.505Z,2.20
2018-01-19T05:41:36.135Z,2.30
2018-01-19T05:44:05.737Z,2.30
2018-01-19T05:46:35.359Z,2.30
2018-01-19T05:49:04.981Z,2.40
2018-01-19T05:51:33.786Z,2.40
2018-01-19T05:54:02.626Z,2.50
2018-01-19T05:56:32.243Z,2.50
2018-01-19T05:59:01.864Z,2.50
2018-01-19T06:01:30.712Z,2.50
2018-01-19T06:03:59.549Z,2.50
2018-01-19T06:06:28.392Z,2.50
2018-01-19T06:08:57.236Z,2.60
2018-01-19T06:11:26.061Z,2.60
2018-01-19T06:13:54.906Z,2.70
2018-01-19T06:16:23.742Z,2.70
2018-01-19T06:18:54.094Z,2.40
2018-01-19T06:21:23.717Z,2.40
2018-01-19T06:23:52.559Z,2.40
2018-01-19T06:26:21.374Z,2.40
2018-01-19T06:28:50.985Z,2.40
2018-01-19T06:31:19.904Z,2.30
2018-01-19T06:33:48.742Z,2.40
2018-01-19T06:36:17.572Z,2.40
2018-01-19T06:38:46.410Z,2.40
2018-01-19T06:41:15.363Z,2.40
2018-01-19T06:43:44.174Z,2.40
2018-01-19T06:46:13.902Z,2.50
2018-01-19T06:48:43.464Z,2.50
2018-01-19T06:51:12.298Z,2.50
2018-01-19T06:53:41.154Z,2.60
2018-01-19T06:56:11.593Z,2.60
2018-01-19T06:58:41.193Z,2.60
2018-01-19T07:01:10.807Z,2.60
2018-01-19T07:03:40.433Z,2.60
2018-01-19T07:06:09.596Z,2.60
2018-01-19T07:08:39.941Z,2.60
2018-01-19T07:11:09.541Z,2.60
2018-01-19T07:13:39.161Z,2.60
2018-01-19T07:16:07.987Z,2.60
2018-01-19T07:18:36.838Z,2.50
2018-01-19T07:21:06.429Z,2.60
2018-01-19T07:23:36.038Z,2.70
2018-01-19T07:26:05.649Z,2.70
2018-01-19T07:28:35.278Z,2.60
2018-01-19T07:31:04.902Z,2.60
2018-01-19T07:33:33.729Z,2.50
2018-01-19T07:36:02.582Z,2.50
2018-01-19T07:38:31.418Z,2.60
2018-01-19T07:41:00.256Z,2.70
2018-01-19T07:43:29.089Z,2.70
2018-01-19T07:45:57.954Z,2.70
2018-01-19T07:48:27.639Z,2.80
2018-01-19T07:50:56.463Z,2.80
2018-01-19T07:53:26.073Z,2.80
2018-01-19T07:55:55.723Z,2.90
2018-01-19T07:58:24.533Z,2.80
2018-01-19T08:00:53.399Z,2.90
2018-01-19T08:03:22.230Z,2.90
2018-01-19T08:05:51.870Z,3.00
2018-01-19T08:08:20.685Z,3.00
2018-01-19T08:10:49.554Z,3.00
2018-01-19T08:13:19.170Z,3.10
2018-01-19T08:15:48.018Z,3.00
2018-01-19T08:18:17.630Z,3.00
2018-01-19T08:20:46.896Z,3.00
2018-01-19T08:23:15.714Z,3.00
2018-01-19T08:25:45.309Z,2.90
2018-01-19T08:28:14.217Z,2.80
2018-01-19T08:30:43.834Z,2.90
2018-01-19T08:33:13.448Z,3.00
2018-01-19T08:35:42.281Z,3.00
2018-01-19T08:38:11.126Z,3.00
2018-01-19T08:40:39.978Z,2.90
2018-01-19T08:43:09.583Z,3.00
2018-01-19T08:45:39.222Z,3.10
2018-01-19T08:48:08.119Z,3.00
2018-01-19T08:50:36.974Z,3.10
2018-01-19T08:53:05.830Z,3.10
2018-01-19T08:55:34.986Z,3.00
2018-01-19T08:58:03.835Z,3.00
2018-01-19T09:00:32.681Z,3.10
2018-01-19T09:03:01.814Z,3.20
2018-01-19T09:05:30.666Z,3.20
2018-01-19T09:07:59.489Z,3.40
2018-01-19T09:10:29.343Z,3.50
2018-01-19T09:12:58.940Z,3.50
2018-01-19T09:15:28.230Z,3.40
2018-01-19T09:17:57.050Z,3.40
2018-01-19T09:20:25.906Z,3.60
2018-01-19T09:22:55.509Z,3.70
2018-01-19T09:25:25.141Z,3.80
2018-01-19T09:27:54.011Z,3.80
2018-01-19T09:30:23.613Z,3.80
2018-01-19T09:32:52.449Z,3.70
2018-01-19T09:35:21.345Z,3.80
2018-01-19T09:37:50.593Z,3.80
2018-01-19T09:40:20.198Z,3.90
2018-01-19T09:42:49.038Z,3.80
2018-01-19T09:45:18.390Z,3.90
2018-01-19T09:47:47.234Z,3.90
2018-01-19T09:50:16.068Z,4.00
2018-01-19T09:52:45.919Z,4.00
2018-01-19T09:55:14.867Z,3.90
2018-01-19T09:57:43.709Z,4.00
2018-01-19T10:00:12.665Z,4.10
2018-01-19T10:02:41.754Z,4.10
2018-01-19T10:05:11.366Z,4.10
2018-01-19T10:07:40.999Z,4.10
2018-01-19T10:10:09.819Z,4.00
2018-01-19T10:12:38.654Z,4.10
2018-01-19T10:15:08.280Z,4.10
2018-01-19T10:17:42.651Z,4.10
2018-01-19T10:20:17.140Z,4.10
2018-01-19T10:22:52.009Z,4.10
2018-01-19T10:25:26.442Z,4.10
2018-01-19T10:28:00.748Z,4.20
2018-01-19T10:30:35.132Z,4.30
2018-01-19T10:33:04.027Z,4.40
2018-01-19T10:35:32.871Z,4.50
2018-01-19T10:38:01.738Z,4.50
2018-01-19T10:40:31.356Z,4.60
2018-01-19T10:43:00.275Z,4.50
2018-01-19T10:45:29.843Z,4.50
2018-01-19T10:47:58.882Z,4.50
2018-01-19T10:50:27.858Z,4.50
2018-01-19T10:52:56.798Z,4.60
2018-01-19T10:55:25.650Z,4.60
2018-01-19T10:57:54.500Z,4.60
2018-01-19T11:00:24.110Z,4.70
2018-01-19T11:02:53.724Z,4.60
2018-01-19T11:05:23.350Z,4.70
2018-01-19T11:07:52.187Z,4.60
2018-01-19T11:10:21.042Z,4.60
2018-01-19T11:12:49.864Z,4.60
2018-01-19T11:15:18.725Z,4.60
2018-01-19T11:17:47.564Z,4.60
2018-01-19T11:20:17.166Z,4.60
2018-01-19T11:22:46.787Z,4.70
2018-01-19T11:25:16.387Z,5.00
2018-01-19T11:27:46.006Z,5.20
2018-01-19T11:30:14.867Z,5.20
2018-01-19T11:32:43.710Z,5.20
2018-01-19T11:35:12.607Z,5.00
2018-01-19T11:37:42.230Z,4.80
2018-01-19T11:40:11.869Z,4.80
2018-01-19T11:42:40.702Z,4.80
2018-01-19T11:45:10.326Z,4.80
2018-01-19T11:47:39.314Z,4.80
2018-01-19T11:50:08.303Z,5.00
2018-01-19T11:52:37.914Z,5.60
2018-01-19T11:55:07.518Z,5.70
2018-01-19T11:57:37.127Z,5.60
2018-01-19T12:00:06.739Z,5.50
2018-01-19T12:02:36.352Z,5.50
2018-01-19T12:05:05.956Z,5.30
2018-01-19T12:07:35.579Z,5.20
2018-01-19T12:10:04.429Z,5.20
2018-01-19T12:12:33.258Z,5.30
2018-01-19T12:15:02.946Z,5.30
2018-01-19T12:17:32.641Z,5.20
2018-01-19T12:20:01.413Z,5.10
2018-01-19T12:22:30.262Z,5.10
2018-01-19T12:24:59.136Z,5.20
2018-01-19T12:27:28.723Z,5.30
2018-01-19T12:29:57.839Z,5.20
2018-01-19T12:32:26.604Z,5.30
2018-01-19T12:34:56.205Z,5.20
2018-01-19T12:37:26.647Z,5.20
2018-01-19T12:39:56.243Z,5.10
2018-01-19T12:42:25.076Z,5.10
2018-01-19T12:44:54.461Z,5.10
2018-01-19T12:47:23.340Z,5.00
2018-01-19T12:49:52.155Z,5.10
2018-01-19T12:52:20.995Z,5.10
2018-01-19T12:54:49.845Z,5.10
2018-01-19T12:57:18.667Z,5.00
2018-01-19T12:59:47.510Z,5.00
2018-01-19T13:02:16.359Z,5.00
2018-01-19T13:04:45.991Z,5.10
2018-01-19T13:07:14.813Z,5.10
2018-01-19T13:09:44.095Z,5.10
2018-01-19T13:12:12.931Z,5.30
2018-01-19T13:14:41.780Z,5.40
2018-01-19T13:17:10.623Z,5.50
2018-01-19T13:19:40.252Z,5.40
2018-01-19T13:22:09.874Z,5.40
2018-01-19T13:24:38.711Z,5.40
2018-01-19T13:27:07.544Z,5.40
2018-01-19T13:29:36.390Z,5.40
2018-01-19T13:32:05.234Z,5.40
2018-01-19T13:34:34.086Z,5.40
2018-01-19T13:37:03.718Z,5.30
2018-01-19T13:39:32.538Z,5.30
2018-01-19T13:42:02.172Z,5.30
2018-01-19T13:44:31.546Z,5.20
2018-01-19T13:47:01.128Z,5.30
2018-01-19T13:49:29.988Z,5.40
2018-01-19T13:51:59.429Z,5.40
2018-01-19T13:54:29.045Z,5.70
2018-01-19T13:56:59.409Z,5.80
2018-01-19T13:59:28.267Z,5.80
2018-01-19T14:01:57.087Z,5.90
2018-01-19T14:04:25.979Z,5.80
2018-01-19T14:06:54.908Z,5.80
2018-01-19T14:09:23.733Z,5.70
2018-01-19T14:11:53.091Z,5.70
2018-01-19T14:14:22.670Z,5.70
2018-01-19T14:16:52.277Z,5.50
2018-01-19T14:19:21.436Z,5.40
2018-01-19T14:21:51.050Z,5.30
2018-01-19T14:24:20.651Z,5.30
2018-01-19T14:26:51.190Z,5.30
2018-01-19T14:29:20.812Z,5.40
2018-01-19T14:31:50.274Z,5.40
2018-01-19T14:34:19.112Z,5.30
2018-01-19T14:36:47.970Z,5.30
2018-01-19T14:39:18.133Z,5.30
2018-01-19T14:41:47.934Z,5.20
2018-01-19T14:44:16.989Z,5.20
2018-01-19T14:46:46.598Z,5.30
2018-01-19T14:49:16.225Z,5.30
2018-01-19T14:51:45.066Z,5.30
2018-01-19T14:54:13.907Z,5.40
2018-01-19T14:56:42.760Z,5.40
2018-01-19T14:59:12.575Z,5.20
2018-01-19T15:01:41.658Z,5.20
2018-01-19T15:04:10.482Z,5.30
2018-01-19T15:06:40.818Z,5.20
2018-01-19T15:09:09.636Z,5.20
2018-01-19T15:11:38.469Z,5.30
2018-01-19T15:14:08.088Z,5.40
2018-01-19T15:16:37.363Z,5.30
2018-01-19T15:19:06.203Z,5.30
2018-01-19T15:21:35.006Z,5.30
2018-01-19T15:24:03.847Z,5.30
2018-01-19T15:26:33.480Z,5.20
2018-01-19T15:29:02.331Z,5.10
2018-01-19T15:31:31.954Z,5.10
2018-01-19T15:34:01.561Z,5.00
2018-01-19T15:36:31.170Z,4.90
2018-01-19T15:39:00.035Z,4.90
2018-01-19T15:41:28.886Z,4.80
2018-01-19T15:43:57.725Z,4.60
2018-01-19T15:46:26.546Z,4.30
2018-01-19T15:48:55.385Z,4.00
2018-01-19T15:51:24.272Z,3.80
2018-01-19T15:53:53.158Z,3.40
2018-01-19T15:56:22.178Z,3.30
2018-01-19T15:58:51.094Z,3.20
2018-01-19T16:01:19.917Z,3.30
2018-01-19T16:03:48.734Z,3.20
2018-01-19T16:06:17.582Z,3.20
2018-01-19T16:08:46.426Z,3.20
2018-01-19T16:11:16.598Z,3.20
2018-01-19T16:13:46.218Z,3.30
2018-01-19T16:16:15.067Z,3.30
2018-01-19T16:18:43.888Z,3.30
2018-01-19T16:21:13.167Z,3.40
2018-01-19T16:23:42.014Z,3.40
2018-01-19T16:26:10.901Z,3.50
2018-01-19T16:28:39.820Z,3.50
2018-01-19T16:31:08.654Z,3.50
2018-01-19T16:33:38.266Z,3.60
2018-01-19T16:36:07.854Z,3.60
2018-01-19T16:38:37.462Z,3.70
2018-01-19T16:41:06.325Z,3.60
2018-01-19T16:43:35.133Z,3.70
2018-01-19T16:46:04.001Z,3.70
2018-01-19T16:48:32.829Z,3.70
2018-01-19T16:51:01.676Z,3.70
2018-01-19T16:53:31.729Z,3.60
2018-01-19T16:56:01.133Z,3.60
2018-01-19T16:58:30.809Z,3.70
2018-01-19T17:01:00.448Z,3.60
2018-01-19T17:03:29.283Z,3.60
2018-01-19T17:05:58.134Z,3.70
2018-01-19T17:08:27.219Z,3.70
2018-01-19T17:10:56.176Z,3.60
2018-01-19T17:13:25.795Z,3.60
2018-01-19T17:15:55.434Z,3.60
2018-01-19T17:18:24.311Z,3.60
2018-01-19T17:20:53.999Z,3.70
2018-01-19T17:23:23.606Z,3.80
2018-01-19T17:25:53.240Z,3.90
2018-01-19T17:28:22.107Z,3.80
2018-01-19T17:30:51.720Z,3.90
2018-01-19T17:33:21.339Z,3.90
2018-01-19T17:35:50.231Z,3.80
2018-01-19T17:38:19.810Z,3.90
2018-01-19T17:40:49.443Z,3.90
2018-01-19T17:43:19.926Z,3.90
2018-01-19T17:45:49.181Z,3.80
2018-01-19T17:48:18.006Z,3.70
2018-01-19T17:50:46.866Z,3.80
2018-01-19T17:53:16.458Z,3.90
2018-01-19T17:55:46.090Z,4.00
2018-01-19T17:58:14.993Z,4.00
2018-01-19T18:00:43.832Z,4.10
2018-01-19T18:03:12.712Z,4.10
2018-01-19T18:05:41.559Z,4.10
2018-01-19T18:08:10.405Z,3.90
2018-01-19T18:10:39.401Z,3.80
2018-01-19T18:13:09.154Z,3.80
2018-01-19T18:15:38.026Z,3.90
2018-01-19T18:18:06.952Z,3.90
2018-01-19T18:20:35.811Z,4.00
2018-01-19T18:23:05.631Z,3.80
2018-01-19T18:25:34.510Z,3.70
2018-01-19T18:28:03.331Z,3.70
2018-01-19T18:30:32.172Z,3.70
2018-01-19T18:33:01.856Z,3.70
2018-01-19T18:35:30.696Z,3.70
2018-01-19T18:37:59.561Z,3.80
2018-01-19T18:40:29.277Z,3.80
2018-01-19T18:42:58.156Z,3.80
2018-01-19T18:45:27.055Z,3.90
2018-01-19T18:47:55.900Z,3.90
2018-01-19T18:50:25.535Z,3.80
2018-01-19T18:52:54.378Z,3.70
2018-01-19T18:55:23.266Z,3.60
2018-01-19T18:57:52.130Z,3.50
2018-01-19T19:00:21.006Z,3.30
2018-01-19T19:02:49.850Z,3.20
2018-01-19T19:05:19.493Z,2.80
2018-01-19T19:07:48.338Z,2.70
2018-01-19T19:10:18.096Z,2.50
2018-01-19T19:12:46.970Z,2.40
2018-01-19T19:15:15.813Z,2.50
2018-01-19T19:17:44.670Z,2.50
2018-01-19T19:20:13.504Z,2.70
2018-01-19T19:22:43.838Z,2.80
2018-01-19T19:25:12.655Z,2.70
2018-01-19T19:27:42.898Z,2.80
2018-01-19T19:30:11.757Z,2.70
2018-01-19T19:32:42.006Z,2.70
2018-01-19T19:35:10.842Z,2.70
2018-01-19T19:37:39.687Z,2.80
2018-01-19T19:40:08.830Z,2.90
2018-01-19T19:42:37.680Z,2.90
2018-01-19T19:45:06.624Z,3.00
2018-01-19T19:47:35.563Z,3.00
2018-01-19T19:50:04.430Z,3.00
2018-01-19T19:52:33.665Z,3.00
2018-01-19T19:55:02.759Z,3.10
2018-01-19T19:57:32.669Z,3.10
2018-01-19T20:00:01.529Z,3.20
2018-01-19T20:02:30.393Z,3.20
2018-01-19T20:04:59.260Z,3.20
2018-01-19T20:07:29.005Z,3.30
2018-01-19T20:09:58.146Z,3.30
2018-01-19T20:12:27.379Z,3.30
2018-01-19T20:14:56.269Z,3.40
2018-01-19T20:17:25.902Z,3.40
2018-01-19T20:19:55.032Z,3.30
2018-01-19T20:22:23.884Z,3.30
2018-01-19T20:24:52.797Z,3.30
2018-01-19T20:27:21.656Z,3.30
2018-01-19T20:29:50.883Z,3.30
2018-01-19T20:32:19.753Z,3.30
2018-01-19T20:34:48.592Z,3.20
2018-01-19T20:37:17.451Z,3.20
2018-01-19T20:39:47.189Z,3.20
2018-01-19T20:42:17.046Z,3.20
2018-01-19T20:44:45.903Z,3.20
2018-01-19T20:47:14.809Z,3.20
2018-01-19T20:49:44.084Z,3.20
2018-01-19T20:52:13.775Z,3.10
2018-01-19T20:54:42.617Z,3.10
2018-01-19T20:57:12.596Z,3.20
2018-01-19T20:59:41.451Z,3.20
2018-01-19T21:02:10.326Z,3.30
2018-01-19T21:04:39.982Z,3.60
2018-01-19T21:07:09.796Z,3.50
2018-01-19T21:09:39.271Z,3.60
2018-01-19T21:12:09.033Z,3.70
2018-01-19T21:14:38.135Z,3.70
2018-01-19T21:17:07.737Z,3.50
2018-01-19T21:19:37.386Z,3.50
2018-01-19T21:22:06.279Z,3.50
2018-01-19T21:24:35.115Z,3.50
2018-01-19T21:27:04.730Z,3.70
2018-01-19T21:29:34.382Z,3.70
2018-01-19T21:32:03.227Z,3.60
2018-01-19T21:34:32.835Z,3.40
2018-01-19T21:37:02.457Z,3.40
2018-01-19T21:39:31.450Z,3.40
2018-01-19T21:42:01.176Z,3.40
2018-01-19T21:44:30.955Z,3.40
2018-01-19T21:47:00.102Z,3.30
2018-01-19T21:49:29.021Z,3.40
2018-01-19T21:51:57.883Z,3.30
2018-01-19T21:54:26.750Z,3.30
2018-01-19T21:56:55.613Z,3.30
2018-01-19T21:59:24.454Z,3.10
2018-01-19T22:01:53.306Z,3.00
2018-01-19T22:04:22.949Z,3.00
2018-01-19T22:06:52.537Z,2.90
2018-01-19T22:09:21.398Z,2.90
2018-01-19T22:11:50.806Z,3.00
2018-01-19T22:14:21.532Z,2.90
2018-01-19T22:16:50.409Z,2.90
2018-01-19T22:19:19.266Z,3.00
2018-01-19T22:21:48.109Z,3.10
2018-01-19T22:24:16.944Z,3.10
2018-01-19T22:26:45.795Z,3.10
2018-01-19T22:29:16.157Z,3.00
2018-01-19T22:31:45.005Z,3.00
2018-01-19T22:34:14.606Z,3.10
2018-01-19T22:36:44.261Z,3.10
2018-01-19T22:39:13.106Z,3.10
2018-01-19T22:41:41.930Z,3.20
2018-01-19T22:44:10.789Z,3.20
2018-01-19T22:46:39.643Z,3.10
2018-01-19T22:49:09.290Z,3.20
2018-01-19T22:51:38.160Z,3.10
2018-01-19T22:54:07.755Z,3.20
2018-01-19T22:56:37.378Z,3.20
2018-01-19T22:59:06.975Z,3.30
2018-01-19T23:01:37.115Z,3.40
2018-01-19T23:04:05.959Z,3.40
2018-01-19T23:06:35.587Z,3.40
2018-01-19T23:09:04.416Z,3.30
2018-01-19T23:11:33.282Z,3.30
2018-01-19T23:14:02.870Z,3.30
2018-01-19T23:16:32.507Z,3.30
2018-01-19T23:19:01.355Z,3.30
2018-01-19T23:21:30.976Z,3.40
2018-01-19T23:24:00.604Z,3.40
2018-01-19T23:26:29.428Z,3.40
2018-01-19T23:28:58.290Z,3.40
2018-01-19T23:31:27.140Z,3.40
2018-01-19T23:33:56.788Z,3.30
2018-01-19T23:36:25.766Z,3.20
2018-01-19T23:38:54.744Z,3.30
2018-01-19T23:41:24.357Z,3.30
2018-01-19T23:43:53.983Z,3.30
2018-01-19T23:46:22.833Z,3.30
2018-01-19T23:48:52.462Z,3.30
2018-01-19T23:51:21.298Z,3.30
2018-01-19T23:53:50.130Z,3.30
2018-01-19T23:56:18.985Z,3.20
2018-01-19T23:58:48.582Z,3.30
